Lauder, United Kingdom
Current Conditions -  °F | °C
As of 8:50 PM on Tuesday 25 Nov 2014 (Local Time) from EGPH Reporting Station
Overcast Overcast  
Wind Chill: 45°   Ceiling: 3400
Heat Index: 45°   Visibility: 4mi
Dew Point: 45°   Wind: 0mph
Humidity: 100%   Direction: NA
Pressure: 30.15"   Gusts: NA
Location:  55.72°N, 2.75°W
Report Text: EGPH 252050Z 00000KT 6000 OVC034 07/07 Q1021
Loading
Personal Weather Stations






























Interactive Weather Map New forecast layout! Learn more

10-Day Weather Forecast

Advertisements
Track Severe Weather on mobile